• Join FlightAware (Why Join?)
  • Login
  • US Flag 
12:12AM EDT


 

Airport Tracker/Info


-or-


 

Live Flight TrackerFlight Track Log ✈ JIA2382 ✈ 24-Jul-2013 ✈ KCLT - KPGV

Flight Track Log - Related Links

Times and Time Zones

All times are in EDT time to prevent confusion due to time zone crossing. See the JIA2382 flight status page for this flight to view local times or setup timezone preferences in your user account.

Time Position Orientation Groundspeed Altitude Reporting Facility
EDT Latitude Longitude Course Direction KTS MPH feet Rate Location/Type
09:31AM 35.2347 -80.9367 72° East 152 175 1,600  Level Atlanta Center
09:32AM 35.2678 -80.9278 12° North 165 190 2,900 1,500 Climbing Atlanta Center
09:33AM 35.3061 -80.8778 47° Northeast 268 308 4,200 1,920 Climbing Atlanta Center
09:34AM 35.1413 -80.6058 29° Northeast  Level FlightAware Approximate
09:34AM 35.2958 -80.7969 99° East 267 307 6,100  Level Atlanta Center
09:35AM 35.2469 -80.5332 30° Northeast  Level FlightAware Approximate
09:35AM 35.2911 -80.7028 93° East 283 326 8,500  Level Atlanta Center
09:36AM 35.3365 -80.4548 72° East  Level FlightAware Approximate
09:36AM 35.3053 -80.6083 80° East 309 356 10,700  Level Atlanta Center
09:37AM 35.3272 -80.5003 76° East 338 389 12,200 1,560 Climbing Atlanta Center
09:38AM 35.3614 -80.3869 70° East 345 397 13,900 1,500 Climbing Atlanta Center
09:40AM 35.4428 -80.1072 70° East 374 430 17,400 1,440 Climbing Washington Center
09:41AM 35.4744 -79.9867 72° East 374 430 18,800 1,140 Climbing Washington Center
09:42AM 35.5036 -79.8683 73° East 385 443 19,700 960 Climbing Washington Center
09:43AM 35.5422 -79.7247 72° East 400 460 20,800 1,020 Climbing Washington Center
09:44AM 35.5761 -79.5886 73° East 400 460 21,800 960 Climbing Washington Center
09:45AM 35.6072 -79.4675 72° East 400 460 22,800 540 Climbing Washington Center
09:46AM 35.6164 -79.3122 86° East 411 473 23,000 60 Climbing Washington Center
09:47AM 35.6183 -79.1794 89° East 420 483 23,000  Level Washington Center
09:48AM 35.6186 -79.0261 90° East 429 494 23,000  Level Washington Center
09:49AM 35.6228 -78.8806 88° East 429 494 23,000 -540 Level Washington Center
09:50AM 35.6244 -78.7325 89° East 424 488 22,000 -1,680 Descending Washington Center
09:51AM 35.6344 -78.5950 85° East 399 459 19,800 -2,640 Descending Washington Center
09:52AM 35.6689 -78.4658 72° East 399 459 16,700 -2,940 Descending Washington Center
09:53AM 35.7053 -78.3342 71° East 393 452 13,900 -1,740 Descending Washington Center
09:54AM 35.7414 -78.2125 70° East 388 447 13,200 -480 Descending Washington Center
09:55AM 35.7753 -78.0856 72° East 377 434 13,000 -780 Descending Washington Center
09:56AM 35.8069 -77.9764 70° East 357 411 11,700 -2,340 Descending Washington Center
09:57AM 35.7878 -77.8786 104° East 283 326 8,500 -2,340 Descending Washington Center
09:58AM 35.7625 -77.7806 108° East 288 331 7,100 -1,440 Descending Washington Center
09:59AM 35.7308 -77.6903 113° Southeast 288 331 5,600 -1,560 Descending Washington Center
10:00AM 35.7053 -77.5922 108° East 293 337 4,000 -1,620 Descending Washington Center